TLPC/SLU METAR and TAF weather

Enter ICAO airport designator
Station Type Date Time Source
TLPC METAR 2022/09/26 00:00 UTC NOAA

TLPC 260000Z 08008KT 9999 -SHRA SCT018 27/25 Q1012 NOSIG


Station Type Date Time Source
TLPC Decoded METAR 2022/09/26 00:00 UTC NOAA

Vigie, Saint Lucia (TLPC) 14-01N 061-00W 2M
Sep 25, 2022 - 08:00 PM EDT / 2022.09.26 0000 UTC
Wind: from the E (080 degrees) at 9 MPH (8 KT):0
Visibility: greater than 7 mile(s):0
Sky conditions: partly cloudy
Weather: light rain showers
Temperature: 80 F (27 C)
Dew Point: 77 F (25 C)
Relative Humidity: 88%
Pressure (altimeter): 29.88 in. Hg (1012 hPa)
ob: TLPC 260000Z 08008KT 9999 -SHRA SCT018 27/25 Q1012 NOSIG
cycle: 0

Station Type Date Time Source
TLPC TAF 2022/09/26 06:03 UTC NOAA

TAF TLPC 260500Z 2606/2706 11008KT 9999 SCT024
TEMPO 2606/2706 5000 SHRA FEW017CB BKN020 BKN040 PROB30
TEMPO 2615/2621 TS

Example: see airport list